createdAt,value
2022-11-19T00:00:47.630Z,16.15
2022-11-19T00:05:50.492Z,18.55
2022-11-19T00:10:52.784Z,14.95
2022-11-19T00:15:54.948Z,14.70
2022-11-19T00:21:03.443Z,17.65
2022-11-19T00:26:15.072Z,17.02
2022-11-19T00:31:17.407Z,17.60
2022-11-19T00:36:19.137Z,18.50
2022-11-19T00:41:20.810Z,15.77
2022-11-19T00:46:30.965Z,16.42
2022-11-19T00:51:33.279Z,21.27
2022-11-19T00:56:34.981Z,15.53
2022-11-19T01:01:36.748Z,16.10
2022-11-19T01:06:38.459Z,20.45
2022-11-19T01:11:40.328Z,18.20
2022-11-19T01:16:42.437Z,17.60
2022-11-19T01:21:44.109Z,16.97
2022-11-19T01:26:46.370Z,14.90
2022-11-19T01:31:50.661Z,26.25
2022-11-19T01:36:53.187Z,16.17
2022-11-19T01:41:55.336Z,20.10
2022-11-19T01:46:57.472Z,19.40
2022-11-19T01:52:02.940Z,19.17
2022-11-19T01:57:10.543Z,22.05
2022-11-19T02:02:13.583Z,19.08
2022-11-19T02:07:16.722Z,19.08
2022-11-19T02:12:49.539Z,17.03
2022-11-19T02:18:11.038Z,20.55
2022-11-19T02:23:34.479Z,21.13
2022-11-19T02:28:46.628Z,15.20
2022-11-19T02:33:56.362Z,22.63
2022-11-19T02:39:06.607Z,20.92
2022-11-19T02:44:40.568Z,16.02
2022-11-19T02:49:47.487Z,18.20
2022-11-19T02:54:49.277Z,18.08
2022-11-19T03:00:17.334Z,18.65
2022-11-19T03:05:23.351Z,19.25
2022-11-19T03:10:31.481Z,17.75
2022-11-19T03:15:51.673Z,23.67
2022-11-19T03:21:04.335Z,20.52
2022-11-19T03:26:40.740Z,14.98
2022-11-19T03:31:47.610Z,25.35
2022-11-19T03:36:53.539Z,19.50
2022-11-19T03:41:56.964Z,21.23
2022-11-19T03:47:08.283Z,19.95
2022-11-19T03:52:12.745Z,17.20
2022-11-19T03:57:20.132Z,18.53
2022-11-19T04:02:22.069Z,20.63
2022-11-19T04:07:24.471Z,23.37
2022-11-19T04:12:26.165Z,21.03
2022-11-19T04:17:27.907Z,17.60
2022-11-19T04:22:29.579Z,22.70
2022-11-19T04:27:31.244Z,19.50
2022-11-19T04:32:32.908Z,19.10
2022-11-19T04:37:34.656Z,19.93
2022-11-19T04:42:36.317Z,17.87
2022-11-19T04:47:38.011Z,17.07
2022-11-19T04:52:41.305Z,21.00
2022-11-19T04:57:43.379Z,17.77
2022-11-19T05:02:45.674Z,17.23
2022-11-19T05:07:47.411Z,21.20
2022-11-19T05:12:49.504Z,19.50
2022-11-19T05:17:51.228Z,19.20
2022-11-19T05:22:53.051Z,19.27
2022-11-19T05:27:54.804Z,19.77
2022-11-19T05:32:56.779Z,20.33
2022-11-19T05:37:58.489Z,19.60
2022-11-19T05:43:06.228Z,26.33
2022-11-19T05:48:07.906Z,19.92
2022-11-19T05:53:10.173Z,18.77
2022-11-19T05:58:13.780Z,17.57
2022-11-19T06:03:15.562Z,22.57
2022-11-19T06:08:17.578Z,20.53
2022-11-19T06:13:19.323Z,18.47
2022-11-19T06:18:21.011Z,18.37
2022-11-19T06:23:22.677Z,19.07
2022-11-19T06:28:24.403Z,22.95
2022-11-19T06:33:26.091Z,35.27
2022-11-19T06:38:27.781Z,38.03
2022-11-19T06:43:29.471Z,26.57
2022-11-19T06:48:31.194Z,22.50
2022-11-19T06:53:33.284Z,25.43
2022-11-19T06:58:35.121Z,27.30
2022-11-19T07:03:36.861Z,20.27
2022-11-19T07:08:39.482Z,20.85
2022-11-19T07:13:59.060Z,19.77
2022-11-19T07:19:03.091Z,23.80
2022-11-19T07:24:07.472Z,27.80
2022-11-19T07:29:11.338Z,25.43
2022-11-19T07:34:12.986Z,20.67
2022-11-19T07:39:14.660Z,24.33
2022-11-19T07:44:16.372Z,26.57
2022-11-19T07:49:18.714Z,34.40
2022-11-19T07:54:20.743Z,28.40
2022-11-19T07:59:22.678Z,29.13
2022-11-19T08:04:27.006Z,24.20
2022-11-19T08:09:28.743Z,32.80
2022-11-19T08:14:30.436Z,46.57
2022-11-19T08:19:32.146Z,43.27
2022-11-19T08:24:33.796Z,47.00
2022-11-19T08:29:35.489Z,31.97
2022-11-19T08:34:37.244Z,32.87
2022-11-19T08:39:40.429Z,40.47
2022-11-19T08:44:42.099Z,38.25
2022-11-19T08:49:43.758Z,30.50
2022-11-19T08:54:45.451Z,28.50
2022-11-19T08:59:47.201Z,28.87
2022-11-19T09:04:48.970Z,24.03
2022-11-19T09:09:50.674Z,23.70
2022-11-19T09:14:52.347Z,23.15
2022-11-19T09:19:54.035Z,23.97
2022-11-19T09:24:55.756Z,20.50
2022-11-19T09:29:57.442Z,18.88
2022-11-19T09:34:59.107Z,20.55
2022-11-19T09:40:00.930Z,16.52
2022-11-19T09:45:33.333Z,21.17
2022-11-19T09:50:53.074Z,18.83
2022-11-19T09:55:55.310Z,16.60
2022-11-19T10:00:57.429Z,18.92
2022-11-19T10:06:18.000Z,16.88
2022-11-19T10:11:31.790Z,19.63
2022-11-19T10:16:42.055Z,16.48
2022-11-19T10:22:09.895Z,17.02
2022-11-19T10:27:19.542Z,20.87
2022-11-19T10:32:24.176Z,18.92
2022-11-19T10:37:32.159Z,20.02
2022-11-19T10:42:33.794Z,18.60
2022-11-19T10:47:44.470Z,17.40
2022-11-19T10:52:53.055Z,16.08
2022-11-19T10:58:22.845Z,13.35
2022-11-19T11:03:34.797Z,15.02
2022-11-19T11:08:52.954Z,17.08
2022-11-19T11:14:18.747Z,16.45
2022-11-19T11:19:22.005Z,15.82
2022-11-19T11:24:36.576Z,19.67
2022-11-19T11:29:38.258Z,16.10
2022-11-19T11:34:43.945Z,14.82
2022-11-19T11:39:50.959Z,13.00
2022-11-19T11:44:54.356Z,11.15
2022-11-19T11:50:06.739Z,11.63
2022-11-19T11:55:31.713Z,11.13
2022-11-19T12:00:40.806Z,11.77
2022-11-19T12:06:04.356Z,9.60
2022-11-19T12:11:12.058Z,8.85
2022-11-19T12:16:42.554Z,8.70
2022-11-19T12:21:56.625Z,9.13
2022-11-19T12:27:01.090Z,7.63
2022-11-19T12:32:17.861Z,10.80
2022-11-19T12:37:33.578Z,10.48
2022-11-19T12:43:02.043Z,9.30
2022-11-19T12:48:13.342Z,8.10
2022-11-19T12:53:27.795Z,6.32
2022-11-19T12:58:35.468Z,4.93
2022-11-19T13:03:49.271Z,3.97
2022-11-19T13:09:34.670Z,5.38
2022-11-19T13:14:54.645Z,5.15
2022-11-19T13:20:01.379Z,4.75
2022-11-19T13:25:05.472Z,5.97
2022-11-19T13:30:17.833Z,5.15
2022-11-19T13:35:33.130Z,5.78
2022-11-19T13:40:59.114Z,4.82
2022-11-19T13:46:26.656Z,6.65
2022-11-19T13:51:47.701Z,4.70
2022-11-19T13:56:51.630Z,5.75
2022-11-19T14:02:10.999Z,6.55
2022-11-19T14:07:22.892Z,6.88
2022-11-19T14:12:52.589Z,7.00
2022-11-19T14:18:20.801Z,7.50
2022-11-19T14:24:06.868Z,7.50
2022-11-19T14:29:40.380Z,6.20
2022-11-19T14:34:46.937Z,6.15
2022-11-19T14:39:57.361Z,6.60
2022-11-19T14:45:02.988Z,5.57
2022-11-19T14:50:09.026Z,6.32
2022-11-19T14:55:16.707Z,6.68
2022-11-19T15:00:18.327Z,11.90
2022-11-19T15:05:21.531Z,7.53
2022-11-19T15:10:27.577Z,6.15
2022-11-19T15:15:38.178Z,8.93
2022-11-19T15:21:14.013Z,11.32
2022-11-19T15:26:41.439Z,8.13
2022-11-19T15:32:14.185Z,10.07
2022-11-19T15:37:19.177Z,11.18
2022-11-19T15:42:42.071Z,15.67
2022-11-19T15:48:18.272Z,14.32
2022-11-19T15:53:24.419Z,13.43
2022-11-19T15:58:30.386Z,11.25
2022-11-19T16:03:32.663Z,9.63
2022-11-19T16:08:35.086Z,15.52
2022-11-19T16:13:55.295Z,14.60
2022-11-19T16:18:56.971Z,14.13
2022-11-19T16:24:18.993Z,16.05
2022-11-19T16:29:23.615Z,15.70
2022-11-19T16:34:29.952Z,17.70
2022-11-19T16:39:33.152Z,19.83
2022-11-19T16:44:35.249Z,25.27
2022-11-19T16:49:49.213Z,25.37
2022-11-19T16:54:51.310Z,24.83
2022-11-19T16:59:59.435Z,23.33
2022-11-19T17:05:12.448Z,25.30
2022-11-19T17:10:14.074Z,18.27
2022-11-19T17:15:44.854Z,34.03
2022-11-19T17:20:50.932Z,26.83
2022-11-19T17:26:08.274Z,47.27
2022-11-19T17:31:19.610Z,49.67
2022-11-19T17:36:22.411Z,47.37
2022-11-19T17:41:46.139Z,49.90
2022-11-19T17:46:47.922Z,43.57
2022-11-19T17:51:49.604Z,39.53
2022-11-19T17:56:51.262Z,45.57
2022-11-19T18:01:53.518Z,41.95
2022-11-19T18:06:55.222Z,42.13
2022-11-19T18:11:56.916Z,40.37
2022-11-19T18:16:58.697Z,44.30
2022-11-19T18:22:00.447Z,38.13
2022-11-19T18:27:02.179Z,33.63
2022-11-19T18:32:03.919Z,30.57
2022-11-19T18:37:05.712Z,37.27
2022-11-19T18:42:10.868Z,41.20
2022-11-19T18:47:14.754Z,39.57
2022-11-19T18:52:16.406Z,33.93
2022-11-19T18:57:18.067Z,38.42
2022-11-19T19:02:19.744Z,47.05
2022-11-19T19:07:21.571Z,41.60
2022-11-19T19:12:23.308Z,44.43
2022-11-19T19:17:25.134Z,43.47
2022-11-19T19:22:26.913Z,44.60
2022-11-19T19:27:28.680Z,44.13
2022-11-19T19:32:30.393Z,39.47
2022-11-19T19:37:32.044Z,34.47
2022-11-19T19:42:38.439Z,34.95
2022-11-19T19:47:42.664Z,40.27
2022-11-19T19:52:44.315Z,38.53
2022-11-19T19:57:45.977Z,34.00
2022-11-19T20:02:49.020Z,33.37
2022-11-19T20:07:50.680Z,39.87
2022-11-19T20:13:10.637Z,41.33
2022-11-19T20:18:12.292Z,41.53
2022-11-19T20:23:13.964Z,40.40
2022-11-19T20:28:15.645Z,43.42
2022-11-19T20:33:17.778Z,45.23
2022-11-19T20:38:19.826Z,51.00
2022-11-19T20:43:45.803Z,37.93
2022-11-19T20:48:50.611Z,37.70
2022-11-19T20:53:52.581Z,30.97
2022-11-19T20:58:54.522Z,39.30
2022-11-19T21:03:59.732Z,34.57
2022-11-19T21:09:01.731Z,29.13
2022-11-19T21:14:04.095Z,34.73
2022-11-19T21:19:05.804Z,33.80
2022-11-19T21:24:07.832Z,36.70
2022-11-19T21:29:09.538Z,37.37
2022-11-19T21:34:17.687Z,42.83
2022-11-19T21:39:20.472Z,39.87
2022-11-19T21:44:22.572Z,38.30
2022-11-19T21:49:24.381Z,37.17
2022-11-19T21:54:26.127Z,39.03
2022-11-19T21:59:27.779Z,32.87
2022-11-19T22:04:29.498Z,33.10
2022-11-19T22:09:31.386Z,29.57
2022-11-19T22:14:33.039Z,29.53
2022-11-19T22:19:36.003Z,28.10
2022-11-19T22:24:37.683Z,21.40
2022-11-19T22:29:39.512Z,27.13
2022-11-19T22:34:41.181Z,27.33
2022-11-19T22:39:43.950Z,23.30
2022-11-19T22:44:45.648Z,27.13
2022-11-19T22:49:47.348Z,20.47
2022-11-19T22:54:49.101Z,24.07
2022-11-19T22:59:50.773Z,23.75
2022-11-19T23:04:52.899Z,26.27
2022-11-19T23:09:54.566Z,30.60
2022-11-19T23:14:56.529Z,28.50
2022-11-19T23:20:03.106Z,28.03
2022-11-19T23:25:06.567Z,39.27
2022-11-19T23:30:08.751Z,35.40
2022-11-19T23:35:10.408Z,36.73
2022-11-19T23:40:12.232Z,30.23
2022-11-19T23:45:13.932Z,27.20
2022-11-19T23:50:15.660Z,32.80
2022-11-19T23:55:17.320Z,31.33
